createdAt,value
2023-03-23T15:58:53.889Z,1.90
2023-03-23T16:01:26.252Z,1.77
2023-03-23T16:04:02.240Z,1.85
2023-03-23T16:06:33.088Z,2.35
2023-03-23T16:09:01.608Z,1.45
2023-03-23T16:11:31.405Z,1.25
2023-03-23T16:13:59.523Z,1.52
2023-03-23T16:16:38.483Z,1.33
2023-03-23T16:19:06.509Z,1.55
2023-03-23T16:21:34.505Z,1.55
2023-03-23T16:24:02.354Z,1.83
2023-03-23T16:26:30.073Z,1.55
2023-03-23T16:29:06.323Z,2.15
2023-03-23T16:31:42.418Z,1.23
2023-03-23T16:34:10.186Z,1.40
2023-03-23T16:36:37.795Z,1.42
2023-03-23T16:39:05.632Z,0.98
2023-03-23T16:41:33.701Z,0.98
2023-03-23T16:44:01.560Z,1.67
2023-03-23T16:46:29.799Z,1.70
2023-03-23T16:48:58.131Z,2.13
2023-03-23T16:51:26.487Z,1.88
2023-03-23T16:53:54.365Z,2.08
2023-03-23T16:56:23.124Z,1.20
2023-03-23T16:58:51.503Z,1.20
2023-03-23T17:01:19.817Z,1.85
2023-03-23T17:03:47.543Z,1.55
2023-03-23T17:06:15.408Z,1.75
2023-03-23T17:08:42.931Z,1.42
2023-03-23T17:11:11.543Z,1.50
2023-03-23T17:13:39.611Z,1.77
2023-03-23T17:16:08.044Z,1.40
2023-03-23T17:18:36.147Z,1.55
2023-03-23T17:21:04.150Z,1.08
2023-03-23T17:23:31.798Z,1.60
2023-03-23T17:25:59.962Z,1.40
2023-03-23T17:28:27.894Z,2.13
2023-03-23T17:30:55.491Z,1.30
2023-03-23T17:33:23.460Z,1.20
2023-03-23T17:35:55.013Z,2.20
2023-03-23T17:38:22.568Z,2.35
2023-03-23T17:41:04.260Z,1.35
2023-03-23T17:43:36.440Z,1.08
2023-03-23T17:46:05.029Z,1.63
2023-03-23T17:48:33.097Z,1.30
2023-03-23T17:51:02.365Z,1.70
2023-03-23T17:53:31.624Z,1.35
2023-03-23T17:55:59.892Z,1.77
2023-03-23T17:58:28.124Z,1.38
2023-03-23T18:00:56.501Z,1.98
2023-03-23T18:03:25.744Z,2.10
2023-03-23T18:06:01.289Z,1.50
2023-03-23T18:08:29.805Z,1.50
2023-03-23T18:10:58.214Z,2.25
2023-03-23T18:13:28.326Z,1.50
2023-03-23T18:15:57.416Z,1.42
2023-03-23T18:18:26.228Z,1.42
2023-03-23T18:21:01.347Z,1.63
2023-03-23T18:23:32.083Z,1.63
2023-03-23T18:25:59.554Z,1.58
2023-03-23T18:28:27.585Z,1.38
2023-03-23T18:30:55.480Z,1.40
2023-03-23T18:33:25.186Z,1.25
2023-03-23T18:36:01.402Z,1.08
2023-03-23T18:38:29.382Z,1.58
2023-03-23T18:40:57.286Z,1.30
2023-03-23T18:43:25.699Z,1.48
2023-03-23T18:45:56.238Z,1.33
2023-03-23T18:48:24.457Z,1.33
2023-03-23T18:50:54.959Z,2.20
2023-03-23T18:53:23.808Z,1.30
2023-03-23T18:55:52.024Z,1.45
2023-03-23T18:58:22.931Z,1.95
2023-03-23T19:00:50.899Z,1.67
2023-03-23T19:03:18.548Z,1.92
2023-03-23T19:05:47.057Z,1.30
2023-03-23T19:08:14.501Z,1.85
2023-03-23T19:10:43.663Z,1.58
2023-03-23T19:13:11.452Z,1.48
2023-03-23T19:15:40.031Z,1.83
2023-03-23T19:18:08.490Z,1.67
2023-03-23T19:23:10.270Z,2.40
2023-03-23T19:30:36.537Z,1.88
2023-03-23T19:33:04.347Z,2.17
2023-03-23T19:35:44.547Z,2.47
2023-03-23T19:38:12.482Z,1.38
2023-03-23T19:40:50.028Z,1.83
2023-03-23T19:43:18.280Z,1.77
2023-03-23T19:45:46.997Z,1.65
2023-03-23T19:48:15.365Z,1.67
2023-03-23T19:50:48.841Z,2.33
2023-03-23T19:53:17.952Z,2.75
2023-03-23T19:55:47.272Z,1.70
2023-03-23T19:58:15.734Z,1.98
2023-03-23T20:00:45.824Z,1.60
2023-03-23T20:03:14.217Z,1.60
2023-03-23T20:05:58.869Z,1.70
2023-03-23T20:08:26.344Z,1.65
2023-03-23T20:11:04.480Z,1.45
2023-03-23T20:13:33.016Z,2.15
2023-03-23T20:16:01.386Z,2.83
2023-03-23T20:18:30.043Z,1.85
2023-03-23T20:21:12.285Z,2.05
2023-03-23T20:23:41.905Z,1.70
2023-03-23T20:26:19.615Z,2.13
2023-03-23T20:28:47.715Z,1.80
2023-03-23T20:31:23.118Z,2.10
2023-03-23T20:34:03.114Z,1.75
2023-03-23T20:36:42.166Z,2.40
2023-03-23T20:39:14.209Z,1.85
2023-03-23T20:41:43.630Z,2.10
2023-03-23T20:44:17.953Z,2.03
2023-03-23T20:46:52.058Z,1.60
2023-03-23T20:49:22.039Z,1.70
2023-03-23T20:51:50.861Z,2.13
2023-03-23T20:54:22.429Z,1.98
2023-03-23T20:56:52.846Z,1.88
2023-03-23T20:59:21.934Z,1.40
2023-03-23T21:01:50.874Z,1.95
2023-03-23T21:04:30.181Z,3.00
2023-03-23T21:06:58.140Z,2.08
2023-03-23T21:09:25.878Z,2.13
2023-03-23T21:11:53.840Z,2.78
2023-03-23T21:14:21.554Z,2.33
2023-03-23T21:16:50.287Z,2.15
2023-03-23T21:19:19.396Z,1.40
2023-03-23T21:21:55.428Z,2.25
2023-03-23T21:24:30.397Z,2.10
2023-03-23T21:27:00.574Z,2.00
2023-03-23T21:29:29.093Z,2.33
2023-03-23T21:36:55.955Z,2.05
2023-03-23T21:39:23.898Z,1.75
2023-03-23T21:41:52.465Z,2.58
2023-03-23T21:44:26.203Z,2.15
2023-03-23T21:46:54.650Z,3.25
2023-03-23T21:49:22.653Z,3.45
2023-03-23T21:51:50.199Z,3.63
2023-03-23T21:54:17.944Z,2.17
2023-03-23T21:56:46.204Z,2.97
2023-03-23T21:59:13.775Z,3.20
2023-03-23T22:01:41.583Z,3.38
2023-03-23T22:04:09.237Z,2.05
2023-03-23T22:06:38.852Z,2.50
2023-03-23T22:09:06.753Z,3.63
2023-03-23T22:11:34.747Z,3.40
2023-03-23T22:14:02.916Z,3.50
2023-03-23T22:16:30.937Z,3.47
2023-03-23T22:19:00.315Z,3.92
2023-03-23T22:21:29.324Z,3.03
2023-03-23T22:24:01.038Z,3.30
2023-03-23T22:26:29.933Z,3.63
2023-03-23T22:28:58.929Z,3.58
2023-03-23T22:31:30.787Z,4.35
2023-03-23T22:35:12.378Z,2.65
2023-03-23T22:37:39.993Z,1.83
2023-03-23T22:40:09.785Z,2.17
2023-03-23T22:42:37.494Z,3.42
2023-03-23T22:45:09.297Z,3.63
2023-03-23T22:47:38.547Z,3.53
2023-03-23T22:50:08.097Z,3.50
2023-03-23T22:52:38.793Z,3.42
2023-03-23T22:55:09.478Z,4.03
2023-03-23T22:57:37.155Z,5.75
2023-03-23T23:00:14.313Z,3.22
2023-03-23T23:02:46.073Z,5.28
2023-03-23T23:05:14.182Z,3.42
2023-03-23T23:07:41.999Z,4.10
2023-03-23T23:10:09.743Z,4.70
2023-03-23T23:12:37.407Z,5.03
2023-03-23T23:15:06.951Z,4.40
2023-03-23T23:17:35.107Z,2.83
2023-03-23T23:20:05.916Z,4.03
2023-03-23T23:22:35.363Z,2.88
2023-03-23T23:25:03.699Z,2.50
2023-03-23T23:27:32.525Z,4.05
2023-03-23T23:30:00.478Z,3.90
2023-03-23T23:32:32.329Z,3.78
2023-03-23T23:35:00.653Z,4.40
2023-03-23T23:37:28.548Z,4.13
2023-03-23T23:39:56.764Z,3.85
2023-03-23T23:42:25.656Z,3.35
2023-03-23T23:44:53.375Z,4.78
2023-03-23T23:47:21.706Z,3.70
2023-03-23T23:49:49.448Z,3.45
2023-03-23T23:52:17.204Z,4.90
2023-03-23T23:54:47.471Z,4.45
2023-03-23T23:57:16.715Z,4.60
2023-03-23T23:59:44.689Z,3.65
